Date,TemperatureHighF,TemperatureAvgF,TemperatureLowF,DewpointHighF,DewpointAvgF,DewpointLowF,HumidityHigh,HumidityAvg,HumidityLow,PressureMaxIn,PressureMinIn,WindSpeedMaxMPH,WindSpeedAvgMPH,GustSpeedMaxMPH,PrecipitationSumIn
2013-4-1,65.8,48.3,37.2,48.0,37.1,22.8,97,68,41,30.01,29.75,16,2,21,0.00
2013-4-2,49.3,40.4,30.4,23.2,17.6,11.7,69,41,24,30.20,30.01,18,2,19,0.00
2013-4-3,52.2,39.4,27.7,22.5,18.7,11.7,74,46,23,30.41,30.20,14,2,16,0.00
2013-4-4,51.3,38.6,25.0,35.6,20.4,14.2,90,52,24,30.44,30.11,8,1,8,0.07
2013-4-5,64.8,49.6,37.4,41.5,33.0,21.9,96,60,27,30.12,29.83,11,2,12,0.17
2013-4-6,58.1,47.3,34.5,31.6,23.5,18.3,62,40,23,30.35,30.06,8,1,9,0.17
2013-4-7,69.4,54.7,38.5,43.0,36.4,28.9,78,52,33,30.30,29.99,14,2,14,0.00
2013-4-8,82.6,66.9,49.3,51.4,46.5,42.1,80,51,28,30.09,29.95,9,1,10,0.00
2013-4-9,86.5,73.3,57.0,57.9,53.5,50.2,81,52,32,30.09,29.92,10,1,11,0.00
2013-4-10,92.5,77.5,60.3,60.8,55.6,52.3,79,49,31,29.98,29.78,13,1,13,0.00
2013-4-11,88.0,72.4,55.4,62.6,57.6,51.6,88,62,38,29.89,29.73,13,2,15,0.00
2013-4-12,72.7,58.7,52.2,67.1,56.5,49.8,98,93,79,29.83,29.58,15,1,15,0.55
2013-4-13,67.8,56.2,42.8,51.3,42.4,38.3,92,63,35,29.96,29.77,9,1,11,0.00
2013-4-14,65.8,55.4,41.4,44.8,40.3,36.7,91,60,36,30.16,29.96,12,1,12,0.00
2013-4-15,64.0,58.0,53.8,52.9,48.6,42.3,89,71,61,30.30,30.14,11,1,11,0.00
2013-4-16,75.4,63.8,54.7,59.9,54.6,47.7,85,73,56,30.33,30.12,11,1,11,0.00
2013-4-17,77.7,66.9,57.6,64.4,59.0,55.0,98,77,57,30.25,30.12,9,1,9,0.00
2013-4-18,76.5,65.2,57.4,66.2,58.7,54.1,97,81,59,30.24,30.01,13,1,13,0.12
2013-4-19,77.2,66.5,49.8,68.0,61.0,48.4,95,83,65,30.01,29.61,14,2,16,0.09
2013-4-20,59.9,51.7,45.0,48.6,34.2,26.6,96,54,32,30.36,29.80,16,2,16,0.06
2013-4-21,56.8,47.1,37.8,33.3,27.4,22.1,65,47,31,30.62,30.36,9,1,9,0.02
2013-4-22,57.7,47.6,34.9,40.3,36.0,32.0,92,66,45,30.60,30.42,15,2,15,0.00
2013-4-23,61.3,51.4,45.7,46.9,42.1,36.9,84,71,54,30.43,30.14,5,1,7,0.01
2013-4-24,78.1,61.5,45.0,58.6,50.6,42.3,96,70,41,30.14,29.80,14,1,16,0.00
2013-4-25,63.7,54.7,44.2,50.5,35.5,29.1,70,50,28,30.33,29.98,18,2,19,0.00
2013-4-26,66.4,54.4,41.2,40.8,37.3,33.1,89,56,31,30.47,30.32,8,1,9,0.01
2013-4-27,72.9,58.2,41.7,48.6,40.2,35.6,92,56,30,30.43,30.30,9,1,9,0.00
2013-4-28,68.2,56.9,45.7,52.0,43.9,37.2,89,64,35,30.31,30.16,10,1,10,0.00
2013-4-29,59.4,55.6,52.7,58.5,53.6,44.2,97,93,63,30.18,30.06,10,1,12,0.04
2013-4-30,58.8,55.8,53.2,57.7,54.5,49.5,98,96,87,30.30,30.10,7,1,7,0.05